sensor_id;sensor_type;location;lat;lon;timestamp;P1;durP1;ratioP1;P2;durP2;ratioP2
7444;SDS011;3764;48.126;11.594;2023-06-05T00:01:59;11.65;;;6.40;;
7444;SDS011;3764;48.126;11.594;2023-06-05T00:04:27;8.00;;;6.55;;
7444;SDS011;3764;48.126;11.594;2023-06-05T00:06:55;7.57;;;6.78;;
7444;SDS011;3764;48.126;11.594;2023-06-05T00:09:22;8.50;;;6.72;;
7444;SDS011;3764;48.126;11.594;2023-06-05T00:11:49;10.88;;;7.05;;
7444;SDS011;3764;48.126;11.594;2023-06-05T00:14:16;8.75;;;7.20;;
7444;SDS011;3764;48.126;11.594;2023-06-05T00:16:44;7.60;;;6.75;;
7444;SDS011;3764;48.126;11.594;2023-06-05T00:19:11;7.10;;;6.25;;
7444;SDS011;3764;48.126;11.594;2023-06-05T00:21:38;7.97;;;7.18;;
7444;SDS011;3764;48.126;11.594;2023-06-05T00:24:07;8.93;;;7.35;;
7444;SDS011;3764;48.126;11.594;2023-06-05T00:26:34;9.35;;;7.78;;
7444;SDS011;3764;48.126;11.594;2023-06-05T00:29:01;8.82;;;7.38;;
7444;SDS011;3764;48.126;11.594;2023-06-05T00:31:28;7.63;;;6.82;;
7444;SDS011;3764;48.126;11.594;2023-06-05T00:33:55;8.85;;;7.00;;
7444;SDS011;3764;48.126;11.594;2023-06-05T00:36:22;7.57;;;6.43;;
7444;SDS011;3764;48.126;11.594;2023-06-05T00:38:49;11.38;;;7.70;;
7444;SDS011;3764;48.126;11.594;2023-06-05T00:41:19;7.35;;;6.70;;
7444;SDS011;3764;48.126;11.594;2023-06-05T00:43:46;8.25;;;7.32;;
7444;SDS011;3764;48.126;11.594;2023-06-05T00:46:13;7.78;;;6.95;;
7444;SDS011;3764;48.126;11.594;2023-06-05T00:48:42;9.80;;;7.63;;
7444;SDS011;3764;48.126;11.594;2023-06-05T00:51:11;9.07;;;7.40;;
7444;SDS011;3764;48.126;11.594;2023-06-05T00:53:41;7.93;;;6.90;;
7444;SDS011;3764;48.126;11.594;2023-06-05T00:56:10;11.73;;;8.77;;
7444;SDS011;3764;48.126;11.594;2023-06-05T00:58:39;11.30;;;9.30;;
7444;SDS011;3764;48.126;11.594;2023-06-05T01:01:06;13.32;;;8.50;;
7444;SDS011;3764;48.126;11.594;2023-06-05T01:03:36;11.27;;;9.00;;
7444;SDS011;3764;48.126;11.594;2023-06-05T01:06:04;12.63;;;8.98;;
7444;SDS011;3764;48.126;11.594;2023-06-05T01:08:31;11.05;;;8.43;;
7444;SDS011;3764;48.126;11.594;2023-06-05T01:11:04;10.25;;;8.98;;
7444;SDS011;3764;48.126;11.594;2023-06-05T01:13:36;10.85;;;9.13;;
7444;SDS011;3764;48.126;11.594;2023-06-05T01:16:10;9.05;;;7.40;;
7444;SDS011;3764;48.126;11.594;2023-06-05T01:18:37;9.00;;;7.70;;
7444;SDS011;3764;48.126;11.594;2023-06-05T01:21:10;8.70;;;7.80;;
7444;SDS011;3764;48.126;11.594;2023-06-05T01:23:42;10.75;;;9.65;;
7444;SDS011;3764;48.126;11.594;2023-06-05T01:26:11;13.25;;;9.50;;
7444;SDS011;3764;48.126;11.594;2023-06-05T01:28:45;11.40;;;8.93;;
7444;SDS011;3764;48.126;11.594;2023-06-05T01:31:16;9.90;;;8.93;;
7444;SDS011;3764;48.126;11.594;2023-06-05T01:33:48;8.77;;;7.97;;
7444;SDS011;3764;48.126;11.594;2023-06-05T01:36:21;9.02;;;7.93;;
7444;SDS011;3764;48.126;11.594;2023-06-05T01:38:51;10.40;;;9.25;;
7444;SDS011;3764;48.126;11.594;2023-06-05T01:41:19;11.57;;;9.68;;
7444;SDS011;3764;48.126;11.594;2023-06-05T01:43:47;11.50;;;9.35;;
7444;SDS011;3764;48.126;11.594;2023-06-05T01:46:17;10.52;;;8.93;;
7444;SDS011;3764;48.126;11.594;2023-06-05T01:48:45;11.90;;;10.60;;
7444;SDS011;3764;48.126;11.594;2023-06-05T01:51:13;10.30;;;9.30;;
7444;SDS011;3764;48.126;11.594;2023-06-05T01:53:40;10.57;;;9.52;;
7444;SDS011;3764;48.126;11.594;2023-06-05T01:56:08;10.68;;;9.57;;
7444;SDS011;3764;48.126;11.594;2023-06-05T01:58:35;10.13;;;9.13;;
7444;SDS011;3764;48.126;11.594;2023-06-05T02:01:03;13.32;;;9.85;;
7444;SDS011;3764;48.126;11.594;2023-06-05T02:03:31;10.25;;;9.25;;
7444;SDS011;3764;48.126;11.594;2023-06-05T02:05:58;12.93;;;10.18;;
7444;SDS011;3764;48.126;11.594;2023-06-05T02:08:25;11.82;;;10.63;;
7444;SDS011;3764;48.126;11.594;2023-06-05T02:10:53;9.95;;;8.95;;
7444;SDS011;3764;48.126;11.594;2023-06-05T02:13:21;10.95;;;9.85;;
7444;SDS011;3764;48.126;11.594;2023-06-05T02:15:50;12.95;;;9.98;;
7444;SDS011;3764;48.126;11.594;2023-06-05T02:18:21;11.43;;;10.30;;
7444;SDS011;3764;48.126;11.594;2023-06-05T02:20:53;10.63;;;9.10;;
7444;SDS011;3764;48.126;11.594;2023-06-05T02:23:21;11.40;;;10.30;;
7444;SDS011;3764;48.126;11.594;2023-06-05T02:25:48;15.18;;;9.13;;
7444;SDS011;3764;48.126;11.594;2023-06-05T02:28:15;14.57;;;9.80;;
7444;SDS011;3764;48.126;11.594;2023-06-05T02:30:46;10.52;;;9.52;;
7444;SDS011;3764;48.126;11.594;2023-06-05T02:33:16;11.30;;;9.52;;
7444;SDS011;3764;48.126;11.594;2023-06-05T02:35:44;15.35;;;11.10;;
7444;SDS011;3764;48.126;11.594;2023-06-05T02:38:11;14.75;;;10.38;;
7444;SDS011;3764;48.126;11.594;2023-06-05T02:40:38;11.55;;;10.45;;
7444;SDS011;3764;48.126;11.594;2023-06-05T02:43:05;12.02;;;10.25;;
7444;SDS011;3764;48.126;11.594;2023-06-05T02:45:33;13.48;;;12.07;;
7444;SDS011;3764;48.126;11.594;2023-06-05T02:48:02;13.00;;;10.20;;
7444;SDS011;3764;48.126;11.594;2023-06-05T02:50:29;12.15;;;10.43;;
7444;SDS011;3764;48.126;11.594;2023-06-05T02:52:56;12.93;;;11.57;;
7444;SDS011;3764;48.126;11.594;2023-06-05T02:55:23;11.43;;;10.10;;
7444;SDS011;3764;48.126;11.594;2023-06-05T02:57:55;12.18;;;10.75;;
7444;SDS011;3764;48.126;11.594;2023-06-05T03:00:22;12.27;;;9.80;;
7444;SDS011;3764;48.126;11.594;2023-06-05T03:02:50;12.30;;;11.00;;
7444;SDS011;3764;48.126;11.594;2023-06-05T03:05:19;12.20;;;10.93;;
7444;SDS011;3764;48.126;11.594;2023-06-05T03:07:49;16.45;;;11.40;;
7444;SDS011;3764;48.126;11.594;2023-06-05T03:10:19;11.88;;;10.68;;
7444;SDS011;3764;48.126;11.594;2023-06-05T03:12:46;12.18;;;10.40;;
7444;SDS011;3764;48.126;11.594;2023-06-05T03:15:13;12.65;;;11.45;;
7444;SDS011;3764;48.126;11.594;2023-06-05T03:17:43;13.30;;;11.65;;
7444;SDS011;3764;48.126;11.594;2023-06-05T03:20:10;11.90;;;10.70;;
7444;SDS011;3764;48.126;11.594;2023-06-05T03:22:39;12.60;;;10.95;;
7444;SDS011;3764;48.126;11.594;2023-06-05T03:25:06;15.95;;;11.40;;
7444;SDS011;3764;48.126;11.594;2023-06-05T03:27:35;11.57;;;10.10;;
7444;SDS011;3764;48.126;11.594;2023-06-05T03:30:02;12.18;;;10.75;;
7444;SDS011;3764;48.126;11.594;2023-06-05T03:32:30;14.65;;;10.75;;
7444;SDS011;3764;48.126;11.594;2023-06-05T03:34:57;13.50;;;10.27;;
7444;SDS011;3764;48.126;11.594;2023-06-05T03:37:24;12.13;;;10.88;;
7444;SDS011;3764;48.126;11.594;2023-06-05T03:39:53;12.77;;;11.48;;
7444;SDS011;3764;48.126;11.594;2023-06-05T03:42:20;12.90;;;11.40;;
7444;SDS011;3764;48.126;11.594;2023-06-05T03:44:47;13.63;;;12.05;;
7444;SDS011;3764;48.126;11.594;2023-06-05T03:47:14;12.07;;;9.50;;
7444;SDS011;3764;48.126;11.594;2023-06-05T03:49:41;12.95;;;11.60;;
7444;SDS011;3764;48.126;11.594;2023-06-05T03:52:11;13.50;;;10.63;;
7444;SDS011;3764;48.126;11.594;2023-06-05T03:54:39;12.35;;;11.15;;
7444;SDS011;3764;48.126;11.594;2023-06-05T03:57:12;12.23;;;11.05;;
7444;SDS011;3764;48.126;11.594;2023-06-05T03:59:40;18.58;;;12.32;;
7444;SDS011;3764;48.126;11.594;2023-06-05T04:02:07;13.27;;;10.95;;
7444;SDS011;3764;48.126;11.594;2023-06-05T04:04:34;12.63;;;10.63;;
7444;SDS011;3764;48.126;11.594;2023-06-05T04:07:01;13.10;;;11.60;;
7444;SDS011;3764;48.126;11.594;2023-06-05T04:09:28;13.55;;;11.23;;
7444;SDS011;3764;48.126;11.594;2023-06-05T04:11:55;10.95;;;9.73;;
7444;SDS011;3764;48.126;11.594;2023-06-05T04:14:24;12.02;;;10.60;;
7444;SDS011;3764;48.126;11.594;2023-06-05T04:16:51;16.40;;;12.27;;
7444;SDS011;3764;48.126;11.594;2023-06-05T04:19:18;12.38;;;11.18;;
7444;SDS011;3764;48.126;11.594;2023-06-05T04:21:46;12.13;;;10.80;;
7444;SDS011;3764;48.126;11.594;2023-06-05T04:24:13;13.60;;;11.25;;
7444;SDS011;3764;48.126;11.594;2023-06-05T04:26:40;15.02;;;10.55;;
7444;SDS011;3764;48.126;11.594;2023-06-05T04:29:08;16.27;;;10.15;;
7444;SDS011;3764;48.126;11.594;2023-06-05T04:31:41;12.50;;;11.20;;
7444;SDS011;3764;48.126;11.594;2023-06-05T04:34:08;13.27;;;11.48;;
7444;SDS011;3764;48.126;11.594;2023-06-05T04:36:36;12.82;;;11.55;;
7444;SDS011;3764;48.126;11.594;2023-06-05T04:39:03;15.73;;;10.77;;
7444;SDS011;3764;48.126;11.594;2023-06-05T04:41:32;12.40;;;11.05;;
7444;SDS011;3764;48.126;11.594;2023-06-05T04:44:01;13.60;;;11.77;;
7444;SDS011;3764;48.126;11.594;2023-06-05T04:46:28;11.30;;;10.18;;
7444;SDS011;3764;48.126;11.594;2023-06-05T04:48:57;13.38;;;10.32;;
7444;SDS011;3764;48.126;11.594;2023-06-05T04:51:24;11.73;;;10.57;;
7444;SDS011;3764;48.126;11.594;2023-06-05T04:53:51;12.70;;;11.48;;
7444;SDS011;3764;48.126;11.594;2023-06-05T04:56:19;14.02;;;11.00;;
7444;SDS011;3764;48.126;11.594;2023-06-05T04:58:47;14.82;;;11.00;;
7444;SDS011;3764;48.126;11.594;2023-06-05T05:01:16;14.80;;;12.90;;
7444;SDS011;3764;48.126;11.594;2023-06-05T05:03:43;12.70;;;11.35;;
7444;SDS011;3764;48.126;11.594;2023-06-05T05:06:15;12.90;;;11.20;;
7444;SDS011;3764;48.126;11.594;2023-06-05T05:08:43;12.70;;;10.43;;
7444;SDS011;3764;48.126;11.594;2023-06-05T05:11:11;11.73;;;10.52;;
7444;SDS011;3764;48.126;11.594;2023-06-05T05:13:39;14.18;;;11.20;;
7444;SDS011;3764;48.126;11.594;2023-06-05T05:16:06;13.52;;;11.40;;
7444;SDS011;3764;48.126;11.594;2023-06-05T05:18:34;13.73;;;11.70;;
7444;SDS011;3764;48.126;11.594;2023-06-05T05:21:02;12.38;;;10.95;;
7444;SDS011;3764;48.126;11.594;2023-06-05T05:23:31;13.70;;;10.50;;
7444;SDS011;3764;48.126;11.594;2023-06-05T05:25:59;13.98;;;11.18;;
7444;SDS011;3764;48.126;11.594;2023-06-05T05:28:26;12.90;;;11.25;;
7444;SDS011;3764;48.126;11.594;2023-06-05T05:30:54;15.60;;;11.55;;
7444;SDS011;3764;48.126;11.594;2023-06-05T05:33:22;20.30;;;10.82;;
7444;SDS011;3764;48.126;11.594;2023-06-05T05:35:50;11.77;;;10.15;;
7444;SDS011;3764;48.126;11.594;2023-06-05T05:38:17;13.90;;;11.75;;
7444;SDS011;3764;48.126;11.594;2023-06-05T05:40:45;18.58;;;11.80;;
7444;SDS011;3764;48.126;11.594;2023-06-05T05:43:12;20.95;;;11.85;;
7444;SDS011;3764;48.126;11.594;2023-06-05T05:45:40;12.70;;;11.45;;
7444;SDS011;3764;48.126;11.594;2023-06-05T05:48:09;12.45;;;11.02;;
7444;SDS011;3764;48.126;11.594;2023-06-05T05:50:36;13.88;;;10.70;;
7444;SDS011;3764;48.126;11.594;2023-06-05T05:53:03;16.55;;;11.52;;
7444;SDS011;3764;48.126;11.594;2023-06-05T05:55:30;15.30;;;12.23;;
7444;SDS011;3764;48.126;11.594;2023-06-05T05:57:59;13.70;;;12.02;;
7444;SDS011;3764;48.126;11.594;2023-06-05T06:00:26;14.40;;;11.75;;
7444;SDS011;3764;48.126;11.594;2023-06-05T06:02:53;13.05;;;10.50;;
7444;SDS011;3764;48.126;11.594;2023-06-05T06:05:21;18.77;;;11.82;;
7444;SDS011;3764;48.126;11.594;2023-06-05T06:07:48;12.93;;;11.60;;
7444;SDS011;3764;48.126;11.594;2023-06-05T06:10:15;12.40;;;10.73;;
7444;SDS011;3764;48.126;11.594;2023-06-05T06:12:43;14.65;;;11.45;;
7444;SDS011;3764;48.126;11.594;2023-06-05T06:15:12;12.63;;;10.70;;
7444;SDS011;3764;48.126;11.594;2023-06-05T06:17:39;13.75;;;10.07;;
7444;SDS011;3764;48.126;11.594;2023-06-05T06:20:06;11.98;;;9.88;;
7444;SDS011;3764;48.126;11.594;2023-06-05T06:22:38;12.25;;;10.63;;
7444;SDS011;3764;48.126;11.594;2023-06-05T06:25:05;13.65;;;11.68;;
7444;SDS011;3764;48.126;11.594;2023-06-05T06:27:33;16.35;;;11.20;;
7444;SDS011;3764;48.126;11.594;2023-06-05T06:30:01;12.77;;;11.00;;
7444;SDS011;3764;48.126;11.594;2023-06-05T06:32:30;14.50;;;11.68;;
7444;SDS011;3764;48.126;11.594;2023-06-05T06:34:57;13.43;;;10.80;;
7444;SDS011;3764;48.126;11.594;2023-06-05T06:37:24;14.65;;;10.90;;
7444;SDS011;3764;48.126;11.594;2023-06-05T06:39:52;10.20;;;9.20;;
7444;SDS011;3764;48.126;11.594;2023-06-05T06:42:19;12.38;;;11.00;;
7444;SDS011;3764;48.126;11.594;2023-06-05T06:44:46;11.85;;;10.57;;
7444;SDS011;3764;48.126;11.594;2023-06-05T06:47:13;10.65;;;9.32;;
7444;SDS011;3764;48.126;11.594;2023-06-05T06:49:41;16.55;;;10.07;;
7444;SDS011;3764;48.126;11.594;2023-06-05T06:52:08;12.57;;;9.63;;
7444;SDS011;3764;48.126;11.594;2023-06-05T06:54:36;13.55;;;11.48;;
7444;SDS011;3764;48.126;11.594;2023-06-05T06:57:03;9.98;;;9.00;;
7444;SDS011;3764;48.126;11.594;2023-06-05T06:59:31;10.60;;;9.50;;
7444;SDS011;3764;48.126;11.594;2023-06-05T07:02:08;13.82;;;11.23;;
7444;SDS011;3764;48.126;11.594;2023-06-05T07:04:36;13.95;;;11.88;;
7444;SDS011;3764;48.126;11.594;2023-06-05T07:07:07;16.35;;;10.10;;
7444;SDS011;3764;48.126;11.594;2023-06-05T07:09:34;13.75;;;10.93;;
7444;SDS011;3764;48.126;11.594;2023-06-05T07:12:02;11.68;;;10.50;;
7444;SDS011;3764;48.126;11.594;2023-06-05T07:14:30;11.80;;;9.50;;
7444;SDS011;3764;48.126;11.594;2023-06-05T07:16:58;13.10;;;11.60;;
7444;SDS011;3764;48.126;11.594;2023-06-05T07:19:26;14.35;;;10.68;;
7444;SDS011;3764;48.126;11.594;2023-06-05T07:21:54;13.88;;;11.52;;
7444;SDS011;3764;48.126;11.594;2023-06-05T07:24:23;12.93;;;10.60;;
7444;SDS011;3764;48.126;11.594;2023-06-05T07:26:51;12.63;;;10.10;;
7444;SDS011;3764;48.126;11.594;2023-06-05T07:29:20;13.18;;;10.48;;
7444;SDS011;3764;48.126;11.594;2023-06-05T07:31:48;12.77;;;10.82;;
7444;SDS011;3764;48.126;11.594;2023-06-05T07:34:17;11.13;;;9.88;;
7444;SDS011;3764;48.126;11.594;2023-06-05T07:36:45;10.80;;;9.07;;
7444;SDS011;3764;48.126;11.594;2023-06-05T07:39:13;11.85;;;10.00;;
7444;SDS011;3764;48.126;11.594;2023-06-05T07:41:42;12.80;;;10.38;;
7444;SDS011;3764;48.126;11.594;2023-06-05T07:44:10;10.73;;;9.70;;
7444;SDS011;3764;48.126;11.594;2023-06-05T07:46:39;12.40;;;9.57;;
7444;SDS011;3764;48.126;11.594;2023-06-05T07:49:06;9.63;;;8.63;;
7444;SDS011;3764;48.126;11.594;2023-06-05T07:51:34;10.00;;;8.43;;
7444;SDS011;3764;48.126;11.594;2023-06-05T07:54:02;10.93;;;9.68;;
7444;SDS011;3764;48.126;11.594;2023-06-05T07:56:29;11.23;;;9.70;;
7444;SDS011;3764;48.126;11.594;2023-06-05T07:58:59;12.55;;;10.60;;
7444;SDS011;3764;48.126;11.594;2023-06-05T08:01:28;15.48;;;11.90;;
7444;SDS011;3764;48.126;11.594;2023-06-05T08:03:56;13.38;;;9.20;;
7444;SDS011;3764;48.126;11.594;2023-06-05T08:06:24;13.65;;;10.02;;
7444;SDS011;3764;48.126;11.594;2023-06-05T08:08:52;10.05;;;8.30;;
7444;SDS011;3764;48.126;11.594;2023-06-05T08:11:19;10.45;;;8.48;;
7444;SDS011;3764;48.126;11.594;2023-06-05T08:13:46;9.75;;;8.32;;
7444;SDS011;3764;48.126;11.594;2023-06-05T08:16:15;9.73;;;8.50;;
7444;SDS011;3764;48.126;11.594;2023-06-05T08:18:42;8.50;;;7.38;;
7444;SDS011;3764;48.126;11.594;2023-06-05T08:21:09;9.52;;;8.18;;
7444;SDS011;3764;48.126;11.594;2023-06-05T08:23:37;13.85;;;9.50;;
7444;SDS011;3764;48.126;11.594;2023-06-05T08:26:04;8.90;;;8.00;;
7444;SDS011;3764;48.126;11.594;2023-06-05T08:28:37;8.10;;;7.32;;
7444;SDS011;3764;48.126;11.594;2023-06-05T08:31:04;10.32;;;8.98;;
7444;SDS011;3764;48.126;11.594;2023-06-05T08:33:34;8.13;;;7.32;;
7444;SDS011;3764;48.126;11.594;2023-06-05T08:36:01;8.55;;;7.65;;
7444;SDS011;3764;48.126;11.594;2023-06-05T08:38:28;8.63;;;7.82;;
7444;SDS011;3764;48.126;11.594;2023-06-05T08:40:56;9.40;;;7.70;;
7444;SDS011;3764;48.126;11.594;2023-06-05T08:43:27;8.55;;;7.35;;
7444;SDS011;3764;48.126;11.594;2023-06-05T08:45:55;9.65;;;8.65;;
7444;SDS011;3764;48.126;11.594;2023-06-05T08:48:24;10.25;;;9.25;;
7444;SDS011;3764;48.126;11.594;2023-06-05T08:50:52;9.20;;;8.30;;
7444;SDS011;3764;48.126;11.594;2023-06-05T08:53:21;11.13;;;9.02;;
7444;SDS011;3764;48.126;11.594;2023-06-05T08:55:53;8.32;;;7.53;;
7444;SDS011;3764;48.126;11.594;2023-06-05T08:58:21;9.30;;;8.33;;
7444;SDS011;3764;48.126;11.594;2023-06-05T09:00:49;8.80;;;7.90;;
7444;SDS011;3764;48.126;11.594;2023-06-05T09:03:16;10.57;;;8.30;;
7444;SDS011;3764;48.126;11.594;2023-06-05T09:05:45;14.57;;;9.30;;
7444;SDS011;3764;48.126;11.594;2023-06-05T09:08:15;9.20;;;8.30;;
7444;SDS011;3764;48.126;11.594;2023-06-05T09:10:42;9.10;;;8.23;;
7444;SDS011;3764;48.126;11.594;2023-06-05T09:13:10;11.47;;;8.20;;
7444;SDS011;3764;48.126;11.594;2023-06-05T09:15:37;11.67;;;8.50;;
7444;SDS011;3764;48.126;11.594;2023-06-05T09:18:04;9.97;;;8.33;;
7444;SDS011;3764;48.126;11.594;2023-06-05T09:20:35;8.67;;;7.60;;
7444;SDS011;3764;48.126;11.594;2023-06-05T09:23:04;9.20;;;8.30;;
7444;SDS011;3764;48.126;11.594;2023-06-05T09:25:49;8.60;;;7.73;;
7444;SDS011;3764;48.126;11.594;2023-06-05T09:28:16;10.10;;;8.60;;
7444;SDS011;3764;48.126;11.594;2023-06-05T09:30:53;9.50;;;8.67;;
7444;SDS011;3764;48.126;11.594;2023-06-05T09:33:22;9.83;;;7.40;;
7444;SDS011;3764;48.126;11.594;2023-06-05T09:36:05;8.57;;;7.67;;
7444;SDS011;3764;48.126;11.594;2023-06-05T09:38:34;10.30;;;9.30;;
7444;SDS011;3764;48.126;11.594;2023-06-05T09:41:03;10.77;;;7.23;;
7444;SDS011;3764;48.126;11.594;2023-06-05T09:43:31;8.10;;;7.30;;
7444;SDS011;3764;48.126;11.594;2023-06-05T09:45:58;9.77;;;8.87;;
7444;SDS011;3764;48.126;11.594;2023-06-05T09:48:31;9.40;;;8.30;;
7444;SDS011;3764;48.126;11.594;2023-06-05T09:51:06;9.77;;;8.30;;
7444;SDS011;3764;48.126;11.594;2023-06-05T09:53:40;9.47;;;8.00;;
7444;SDS011;3764;48.126;11.594;2023-06-05T09:56:11;10.30;;;8.00;;
7444;SDS011;3764;48.126;11.594;2023-06-05T09:58:40;9.17;;;8.17;;
7444;SDS011;3764;48.126;11.594;2023-06-05T10:01:10;8.93;;;8.13;;
7444;SDS011;3764;48.126;11.594;2023-06-05T10:03:42;8.37;;;7.57;;
7444;SDS011;3764;48.126;11.594;2023-06-05T10:06:13;7.97;;;7.17;;
7444;SDS011;3764;48.126;11.594;2023-06-05T10:08:48;8.20;;;7.37;;
7444;SDS011;3764;48.126;11.594;2023-06-05T10:11:18;7.40;;;6.70;;
7444;SDS011;3764;48.126;11.594;2023-06-05T10:13:46;11.33;;;8.17;;
7444;SDS011;3764;48.126;11.594;2023-06-05T10:16:14;17.47;;;9.00;;
7444;SDS011;3764;48.126;11.594;2023-06-05T10:18:43;8.53;;;7.57;;
7444;SDS011;3764;48.126;11.594;2023-06-05T10:21:13;8.60;;;7.40;;
7444;SDS011;3764;48.126;11.594;2023-06-05T10:23:42;7.83;;;7.03;;
7444;SDS011;3764;48.126;11.594;2023-06-05T10:26:12;9.13;;;7.20;;
7444;SDS011;3764;48.126;11.594;2023-06-05T10:28:49;8.43;;;7.40;;
7444;SDS011;3764;48.126;11.594;2023-06-05T10:31:26;9.43;;;8.43;;
7444;SDS011;3764;48.126;11.594;2023-06-05T10:34:04;8.50;;;7.60;;
7444;SDS011;3764;48.126;11.594;2023-06-05T10:39:54;9.03;;;8.00;;
7444;SDS011;3764;48.126;11.594;2023-06-05T10:42:24;8.07;;;6.80;;
7444;SDS011;3764;48.126;11.594;2023-06-05T10:44:52;9.10;;;7.77;;
7444;SDS011;3764;48.126;11.594;2023-06-05T10:50:19;9.80;;;7.00;;
7444;SDS011;3764;48.126;11.594;2023-06-05T10:52:56;8.57;;;7.70;;
7444;SDS011;3764;48.126;11.594;2023-06-05T10:55:25;8.30;;;7.50;;
7444;SDS011;3764;48.126;11.594;2023-06-05T10:58:03;13.97;;;8.20;;
7444;SDS011;3764;48.126;11.594;2023-06-05T11:00:35;11.00;;;9.13;;
7444;SDS011;3764;48.126;11.594;2023-06-05T11:03:03;10.93;;;7.50;;
7444;SDS011;3764;48.126;11.594;2023-06-05T11:05:32;7.80;;;7.00;;
7444;SDS011;3764;48.126;11.594;2023-06-05T11:08:10;8.70;;;7.30;;
7444;SDS011;3764;48.126;11.594;2023-06-05T11:11:01;8.60;;;7.30;;
7444;SDS011;3764;48.126;11.594;2023-06-05T11:16:30;11.30;;;6.60;;
7444;SDS011;3764;48.126;11.594;2023-06-05T11:22:05;8.23;;;7.10;;
7444;SDS011;3764;48.126;11.594;2023-06-05T11:24:37;8.00;;;7.27;;
7444;SDS011;3764;48.126;11.594;2023-06-05T11:27:05;8.10;;;7.30;;
7444;SDS011;3764;48.126;11.594;2023-06-05T11:29:35;8.20;;;7.40;;
7444;SDS011;3764;48.126;11.594;2023-06-05T11:32:10;8.40;;;7.53;;
7444;SDS011;3764;48.126;11.594;2023-06-05T11:34:38;7.53;;;6.80;;
7444;SDS011;3764;48.126;11.594;2023-06-05T11:37:17;7.10;;;6.37;;
7444;SDS011;3764;48.126;11.594;2023-06-05T11:39:44;8.00;;;6.23;;
7444;SDS011;3764;48.126;11.594;2023-06-05T12:11:57;8.90;;;6.77;;
7444;SDS011;3764;48.126;11.594;2023-06-05T12:14:38;6.80;;;6.20;;
7444;SDS011;3764;48.126;11.594;2023-06-05T12:18:01;7.07;;;6.30;;
7444;SDS011;3764;48.126;11.594;2023-06-05T12:21:23;9.00;;;6.80;;
7444;SDS011;3764;48.126;11.594;2023-06-05T12:28:18;6.63;;;6.00;;
7444;SDS011;3764;48.126;11.594;2023-06-05T12:30:46;7.73;;;6.83;;
7444;SDS011;3764;48.126;11.594;2023-06-05T12:33:13;6.63;;;6.03;;
7444;SDS011;3764;48.126;11.594;2023-06-05T12:35:40;11.27;;;6.40;;
7444;SDS011;3764;48.126;11.594;2023-06-05T12:38:07;8.93;;;6.23;;
7444;SDS011;3764;48.126;11.594;2023-06-05T12:40:36;7.43;;;6.73;;
7444;SDS011;3764;48.126;11.594;2023-06-05T12:43:03;6.57;;;5.97;;
7444;SDS011;3764;48.126;11.594;2023-06-05T12:45:31;6.37;;;5.77;;
7444;SDS011;3764;48.126;11.594;2023-06-05T12:47:59;6.80;;;6.20;;
7444;SDS011;3764;48.126;11.594;2023-06-05T12:50:26;6.63;;;6.03;;
7444;SDS011;3764;48.126;11.594;2023-06-05T12:52:53;10.97;;;6.57;;
7444;SDS011;3764;48.126;11.594;2023-06-05T12:55:20;6.17;;;5.57;;
7444;SDS011;3764;48.126;11.594;2023-06-05T12:57:47;8.33;;;6.80;;
7444;SDS011;3764;48.126;11.594;2023-06-05T13:00:15;7.60;;;6.80;;
7444;SDS011;3764;48.126;11.594;2023-06-05T13:02:45;5.83;;;5.33;;
7444;SDS011;3764;48.126;11.594;2023-06-05T13:05:13;6.00;;;5.50;;
7444;SDS011;3764;48.126;11.594;2023-06-05T13:07:40;7.33;;;6.63;;
7444;SDS011;3764;48.126;11.594;2023-06-05T13:10:08;6.90;;;5.80;;
7444;SDS011;3764;48.126;11.594;2023-06-05T13:12:37;7.13;;;5.73;;
7444;SDS011;3764;48.126;11.594;2023-06-05T13:15:04;7.57;;;6.40;;
7444;SDS011;3764;48.126;11.594;2023-06-05T13:17:32;7.70;;;6.50;;
7444;SDS011;3764;48.126;11.594;2023-06-05T13:20:02;11.50;;;6.00;;
7444;SDS011;3764;48.126;11.594;2023-06-05T13:22:31;6.57;;;5.90;;
7444;SDS011;3764;48.126;11.594;2023-06-05T13:24:59;6.90;;;6.20;;
7444;SDS011;3764;48.126;11.594;2023-06-05T13:27:26;7.27;;;6.57;;
7444;SDS011;3764;48.126;11.594;2023-06-05T13:29:53;6.60;;;5.93;;
7444;SDS011;3764;48.126;11.594;2023-06-05T13:32:20;7.47;;;5.67;;
7444;SDS011;3764;48.126;11.594;2023-06-05T13:34:47;7.30;;;6.00;;
7444;SDS011;3764;48.126;11.594;2023-06-05T13:37:15;7.90;;;6.40;;
7444;SDS011;3764;48.126;11.594;2023-06-05T13:39:43;7.03;;;6.33;;
7444;SDS011;3764;48.126;11.594;2023-06-05T13:42:10;7.40;;;6.40;;
7444;SDS011;3764;48.126;11.594;2023-06-05T13:44:38;5.97;;;5.03;;
7444;SDS011;3764;48.126;11.594;2023-06-05T13:47:05;6.20;;;5.60;;
7444;SDS011;3764;48.126;11.594;2023-06-05T13:49:34;5.77;;;5.17;;
7444;SDS011;3764;48.126;11.594;2023-06-05T13:52:01;6.83;;;5.13;;
7444;SDS011;3764;48.126;11.594;2023-06-05T13:54:29;6.97;;;5.63;;
7444;SDS011;3764;48.126;11.594;2023-06-05T13:56:56;5.93;;;5.43;;
7444;SDS011;3764;48.126;11.594;2023-06-05T13:59:24;6.83;;;5.60;;
7444;SDS011;3764;48.126;11.594;2023-06-05T14:01:51;5.30;;;4.80;;
7444;SDS011;3764;48.126;11.594;2023-06-05T14:04:19;6.03;;;4.80;;
7444;SDS011;3764;48.126;11.594;2023-06-05T14:06:47;5.20;;;4.70;;
7444;SDS011;3764;48.126;11.594;2023-06-05T14:09:14;5.33;;;4.83;;
7444;SDS011;3764;48.126;11.594;2023-06-05T14:11:42;4.93;;;4.53;;
7444;SDS011;3764;48.126;11.594;2023-06-05T14:14:09;5.30;;;4.80;;
7444;SDS011;3764;48.126;11.594;2023-06-05T14:16:37;5.80;;;4.30;;
7444;SDS011;3764;48.126;11.594;2023-06-05T14:19:04;4.90;;;4.50;;
7444;SDS011;3764;48.126;11.594;2023-06-05T14:21:31;5.80;;;4.90;;
7444;SDS011;3764;48.126;11.594;2023-06-05T14:23:59;5.07;;;4.57;;
7444;SDS011;3764;48.126;11.594;2023-06-05T14:26:26;5.37;;;4.87;;
7444;SDS011;3764;48.126;11.594;2023-06-05T14:28:56;9.67;;;5.40;;
7444;SDS011;3764;48.126;11.594;2023-06-05T14:31:23;6.37;;;5.07;;
7444;SDS011;3764;48.126;11.594;2023-06-05T14:33:52;5.23;;;4.73;;
7444;SDS011;3764;48.126;11.594;2023-06-05T14:36:19;5.20;;;4.70;;
7444;SDS011;3764;48.126;11.594;2023-06-05T14:38:47;5.27;;;4.77;;
7444;SDS011;3764;48.126;11.594;2023-06-05T14:41:14;5.80;;;4.90;;
7444;SDS011;3764;48.126;11.594;2023-06-05T14:43:41;5.40;;;4.90;;
7444;SDS011;3764;48.126;11.594;2023-06-05T14:46:09;6.00;;;5.30;;
7444;SDS011;3764;48.126;11.594;2023-06-05T14:48:36;6.00;;;5.50;;
7444;SDS011;3764;48.126;11.594;2023-06-05T14:51:04;6.23;;;5.63;;
7444;SDS011;3764;48.126;11.594;2023-06-05T14:53:31;5.90;;;5.40;;
7444;SDS011;3764;48.126;11.594;2023-06-05T14:55:58;5.70;;;4.97;;
7444;SDS011;3764;48.126;11.594;2023-06-05T14:58:25;7.13;;;5.13;;
7444;SDS011;3764;48.126;11.594;2023-06-05T15:00:58;8.43;;;5.40;;
7444;SDS011;3764;48.126;11.594;2023-06-05T15:03:26;5.40;;;4.90;;
7444;SDS011;3764;48.126;11.594;2023-06-05T15:05:53;6.40;;;5.53;;
7444;SDS011;3764;48.126;11.594;2023-06-05T15:08:20;6.10;;;4.87;;
7444;SDS011;3764;48.126;11.594;2023-06-05T15:10:48;6.13;;;5.60;;
7444;SDS011;3764;48.126;11.594;2023-06-05T15:13:16;8.00;;;5.10;;
7444;SDS011;3764;48.126;11.594;2023-06-05T15:15:45;6.10;;;5.50;;
7444;SDS011;3764;48.126;11.594;2023-06-05T15:18:12;6.23;;;4.70;;
7444;SDS011;3764;48.126;11.594;2023-06-05T15:20:40;6.97;;;5.40;;
7444;SDS011;3764;48.126;11.594;2023-06-05T15:23:07;5.67;;;4.97;;
7444;SDS011;3764;48.126;11.594;2023-06-05T15:25:34;5.97;;;5.47;;
7444;SDS011;3764;48.126;11.594;2023-06-05T15:28:01;8.80;;;5.27;;
7444;SDS011;3764;48.126;11.594;2023-06-05T15:30:28;6.10;;;5.50;;
7444;SDS011;3764;48.126;11.594;2023-06-05T15:32:55;8.23;;;6.30;;
7444;SDS011;3764;48.126;11.594;2023-06-05T15:35:23;5.70;;;5.20;;
7444;SDS011;3764;48.126;11.594;2023-06-05T15:37:54;7.10;;;5.20;;
7444;SDS011;3764;48.126;11.594;2023-06-05T15:40:21;5.87;;;5.07;;
7444;SDS011;3764;48.126;11.594;2023-06-05T15:43:01;6.60;;;5.90;;
7444;SDS011;3764;48.126;11.594;2023-06-05T15:45:30;7.70;;;5.53;;
7444;SDS011;3764;48.126;11.594;2023-06-05T15:47:58;5.50;;;5.00;;